Time;durP1;ratioP1;P1;durP2;ratioP2;P2;SDS_P1;SDS_P2;PMS_P1;PMS_P2;Temp;Humidity;BMP_temperature;BMP_pressure;BME280_temperature;BME280_humidity;BME280_pressure;Samples;Min_cycle;Max_cycle;Signal;HPM_P1;HPM_P2
2023/04/04 00:00:12;;;;;;;6.57;2.97;;;4.50;99.90;;;;;;5022664;28;20532;-77
2023/04/04 00:02:37;;;;;;;3.47;2.80;;;4.30;99.90;;;;;;5039790;28;20504;-77
2023/04/04 00:05:04;;;;;;;4.40;3.20;;;4.20;99.90;;;;;;5018247;28;20500;-77
2023/04/04 00:07:30;;;;;;;4.90;2.87;;;4.30;99.90;;;;;;5021151;28;20190;-77
2023/04/04 00:09:56;;;;;;;7.07;3.20;;;4.20;99.90;;;;;;5013303;28;21012;-77
2023/04/04 00:12:23;;;;;;;4.90;2.33;;;4.50;99.90;;;;;;5012488;28;20915;-77
2023/04/04 00:14:49;;;;;;;3.37;2.30;;;4.10;99.90;;;;;;5013207;28;20179;-76
2023/04/04 00:17:15;;;;;;;3.43;2.70;;;4.40;99.90;;;;;;5013032;28;20428;-78
2023/04/04 00:19:41;;;;;;;4.23;2.80;;;4.50;99.90;;;;;;5014304;28;20536;-78
2023/04/04 00:22:07;;;;;;;4.60;3.30;;;4.20;99.90;;;;;;5015995;28;20441;-78
2023/04/04 00:24:33;;;;;;;5.07;3.83;;;4.20;99.90;;;;;;5015631;28;20259;-78
2023/04/04 00:26:59;;;;;;;5.97;3.50;;;4.10;99.90;;;;;;5015188;28;20414;-78
2023/04/04 00:29:24;;;;;;;5.93;3.20;;;4.10;99.90;;;;;;5015276;28;20540;-78
2023/04/04 00:31:50;;;;;;;5.33;4.20;;;4.00;99.90;;;;;;4998249;28;20179;-78
2023/04/04 00:34:16;;;;;;;4.73;4.03;;;4.10;99.90;;;;;;4997729;28;20185;-77
2023/04/04 00:36:42;;;;;;;4.50;3.40;;;4.30;99.90;;;;;;5014067;28;20167;-78
2023/04/04 00:39:07;;;;;;;5.10;4.60;;;4.10;99.90;;;;;;5014521;28;20272;-78
2023/04/04 00:41:33;;;;;;;6.27;4.03;;;4.10;99.90;;;;;;5014082;28;20245;-78
2023/04/04 00:44:00;;;;;;;5.70;4.07;;;4.40;99.90;;;;;;5014478;28;20179;-78
2023/04/04 00:46:26;;;;;;;6.03;4.20;;;4.20;99.90;;;;;;5014246;28;20782;-78
2023/04/04 00:48:53;;;;;;;5.00;3.60;;;4.10;99.90;;;;;;5014880;28;20461;-78
2023/04/04 00:51:19;;;;;;;10.33;4.03;;;4.10;99.90;;;;;;5014945;28;20962;-78
2023/04/04 00:53:46;;;;;;;7.70;4.00;;;4.30;99.90;;;;;;5014947;28;20415;-77
2023/04/04 00:56:12;;;;;;;5.97;3.87;;;4.20;99.90;;;;;;5014145;28;20286;-78
2023/04/04 00:58:39;;;;;;;4.50;3.83;;;4.00;99.90;;;;;;4997495;28;20418;-77
2023/04/04 01:01:05;;;;;;;7.37;4.43;;;4.30;99.90;;;;;;5013244;28;20410;-77
2023/04/04 01:03:32;;;;;;;6.80;4.23;;;4.30;99.90;;;;;;4997689;28;20418;-78
2023/04/04 01:05:58;;;;;;;5.77;3.73;;;4.10;99.90;;;;;;4997390;28;20273;-77
2023/04/04 01:08:26;;;;;;;6.77;4.50;;;4.00;99.90;;;;;;5014660;28;20460;-78
2023/04/04 01:10:51;;;;;;;5.80;4.50;;;4.00;99.90;;;;;;5015547;28;20422;-78
2023/04/04 01:13:17;;;;;;;5.27;4.10;;;4.00;99.90;;;;;;4997254;28;20414;-78
2023/04/04 01:15:44;;;;;;;5.70;4.60;;;3.90;99.90;;;;;;5030149;28;20410;-78
2023/04/04 01:18:13;;;;;;;6.00;4.27;;;3.90;99.90;;;;;;5014778;28;20426;-77
2023/04/04 01:21:02;;;;;;;6.33;4.00;;;4.00;99.90;;;;;;5014260;28;20438;-78
2023/04/04 01:23:50;;;;;;;6.20;4.37;;;4.10;99.90;;;;;;5015351;28;20402;-79
2023/04/04 01:26:16;;;;;;;5.87;4.27;;;4.00;99.90;;;;;;5031381;28;20476;-77
2023/04/04 01:28:41;;;;;;;5.97;4.20;;;4.00;99.90;;;;;;5028520;28;21164;-77
2023/04/04 01:31:11;;;;;;;6.60;4.60;;;3.80;99.90;;;;;;5014547;28;20172;-77
2023/04/04 01:33:45;;;;;;;5.00;4.07;;;3.90;99.90;;;;;;5014789;28;20222;-77
2023/04/04 01:36:30;;;;;;;7.80;4.93;;;3.90;99.90;;;;;;5013213;28;20453;-77
2023/04/04 01:39:05;;;;;;;6.07;4.67;;;3.90;99.90;;;;;;5012471;28;20641;-77
2023/04/04 01:41:34;;;;;;;7.67;4.50;;;3.80;99.90;;;;;;5014080;28;20837;-78
2023/04/04 01:44:00;;;;;;;4.80;4.20;;;3.60;99.90;;;;;;5024265;28;20438;-77
2023/04/04 01:46:26;;;;;;;8.37;4.20;;;3.50;99.90;;;;;;5009550;28;20415;-78
2023/04/04 01:48:52;;;;;;;7.60;4.30;;;3.60;99.90;;;;;;4994192;28;20458;-78
2023/04/04 01:51:18;;;;;;;7.13;4.90;;;3.60;99.90;;;;;;4994047;28;20176;-78
2023/04/04 01:53:44;;;;;;;7.20;4.40;;;3.50;99.90;;;;;;4994343;28;20426;-78
2023/04/04 01:56:09;;;;;;;5.10;4.50;;;3.50;99.90;;;;;;5009867;28;20248;-77
2023/04/04 01:58:35;;;;;;;5.17;3.73;;;3.60;99.90;;;;;;4994562;28;20246;-78
2023/04/04 02:01:00;;;;;;;5.97;4.00;;;3.60;99.90;;;;;;5009453;28;20180;-77
2023/04/04 02:03:26;;;;;;;4.73;3.90;;;3.40;99.90;;;;;;4994568;28;20202;-78
2023/04/04 02:05:52;;;;;;;4.50;3.53;;;3.30;99.90;;;;;;4993919;28;20649;-77
2023/04/04 02:08:19;;;;;;;5.27;4.10;;;3.50;99.90;;;;;;4993415;28;20200;-78
2023/04/04 02:10:44;;;;;;;6.20;4.60;;;3.30;99.90;;;;;;4994020;28;20423;-78
2023/04/04 02:13:11;;;;;;;5.73;4.20;;;3.50;99.90;;;;;;5009739;28;20442;-78
2023/04/04 02:15:36;;;;;;;8.00;4.90;;;3.20;99.90;;;;;;5008960;28;20187;-77
2023/04/04 02:18:02;;;;;;;5.10;4.10;;;3.20;99.90;;;;;;4997957;28;20907;-77
2023/04/04 02:20:28;;;;;;;5.87;5.03;;;3.30;99.90;;;;;;5013363;28;20199;-77
2023/04/04 02:22:55;;;;;;;4.67;3.50;;;3.20;99.90;;;;;;5013786;28;20406;-78
2023/04/04 02:25:22;;;;;;;4.47;4.07;;;3.30;99.90;;;;;;5012194;28;20418;-77
2023/04/04 02:27:47;;;;;;;6.73;4.80;;;3.20;99.90;;;;;;5013517;28;20421;-78
2023/04/04 02:30:13;;;;;;;5.50;3.90;;;3.20;99.90;;;;;;5013871;28;20453;-78
2023/04/04 02:32:39;;;;;;;5.07;4.37;;;3.20;99.90;;;;;;5014597;28;20179;-78
2023/04/04 02:35:05;;;;;;;7.67;4.23;;;3.10;99.90;;;;;;5013706;28;20263;-78
2023/04/04 02:37:31;;;;;;;4.97;4.33;;;3.20;99.90;;;;;;5014100;28;20202;-79
2023/04/04 02:39:57;;;;;;;7.67;4.30;;;3.20;99.90;;;;;;5012342;28;20458;-78
2023/04/04 02:42:22;;;;;;;7.37;4.10;;;3.30;99.90;;;;;;5014420;28;20189;-79
2023/04/04 02:44:48;;;;;;;5.53;4.03;;;3.00;99.90;;;;;;5001034;28;20192;-79
2023/04/04 02:47:13;;;;;;;6.73;4.30;;;3.00;99.90;;;;;;4993428;28;20242;-78
2023/04/04 02:49:39;;;;;;;5.97;4.23;;;3.10;99.90;;;;;;4993851;28;20242;-78
2023/04/04 02:52:07;;;;;;;4.90;4.07;;;3.20;99.90;;;;;;4994537;28;20182;-78
2023/04/04 02:54:32;;;;;;;4.40;4.00;;;3.00;99.90;;;;;;5009192;28;20190;-78
2023/04/04 02:56:58;;;;;;;5.90;4.40;;;2.80;99.90;;;;;;4992031;28;20406;-78
2023/04/04 02:59:24;;;;;;;4.63;4.20;;;3.10;99.90;;;;;;4992006;28;20203;-78
2023/04/04 03:01:50;;;;;;;5.17;4.10;;;3.00;99.90;;;;;;4994053;28;20668;-78
2023/04/04 03:04:18;;;;;;;4.70;3.90;;;3.00;99.90;;;;;;4993212;28;20451;-78
2023/04/04 03:06:44;;;;;;;3.93;3.57;;;3.00;99.90;;;;;;4993988;28;20552;-76
2023/04/04 03:09:10;;;;;;;5.50;3.80;;;3.00;99.90;;;;;;5008236;28;21153;-78
2023/04/04 03:11:36;;;;;;;5.60;3.67;;;3.00;99.90;;;;;;4992867;28;20458;-77
2023/04/04 03:14:01;;;;;;;5.70;4.40;;;2.90;99.90;;;;;;4993171;28;20180;-78
2023/04/04 03:16:28;;;;;;;5.33;4.20;;;2.90;99.90;;;;;;4993293;28;20176;-77
2023/04/04 03:18:54;;;;;;;7.90;4.50;;;2.80;99.90;;;;;;5004022;28;20442;-79
2023/04/04 03:21:21;;;;;;;6.47;4.93;;;2.80;99.90;;;;;;5012872;28;20422;-78
2023/04/04 03:23:46;;;;;;;6.37;4.60;;;2.80;99.90;;;;;;5027571;28;20482;-78
2023/04/04 03:26:12;;;;;;;6.07;4.53;;;2.90;99.90;;;;;;5028507;28;20449;-78
2023/04/04 03:28:38;;;;;;;6.10;4.47;;;2.80;99.90;;;;;;5012735;28;20203;-78
2023/04/04 03:31:05;;;;;;;7.23;5.00;;;2.90;99.90;;;;;;5010882;28;20929;-77
2023/04/04 03:33:32;;;;;;;4.70;4.30;;;2.80;99.90;;;;;;4994082;28;20855;-77
2023/04/04 03:35:58;;;;;;;7.27;4.47;;;2.90;99.90;;;;;;5012560;28;20410;-78
2023/04/04 03:38:24;;;;;;;4.83;4.27;;;2.90;99.90;;;;;;5009639;28;20748;-78
2023/04/04 03:41:00;;;;;;;5.93;4.47;;;2.80;99.90;;;;;;5012080;28;20936;-78
2023/04/04 03:43:27;;;;;;;6.37;4.77;;;2.90;99.90;;;;;;5010875;28;20421;-78
2023/04/04 03:45:54;;;;;;;6.53;4.43;;;2.70;99.90;;;;;;4991165;28;20570;-77
2023/04/04 03:48:19;;;;;;;7.10;4.63;;;2.70;99.90;;;;;;4992308;28;20411;-78
2023/04/04 03:50:45;;;;;;;5.93;4.27;;;2.70;99.90;;;;;;4992085;28;20442;-77
2023/04/04 03:53:11;;;;;;;9.07;4.57;;;2.60;99.90;;;;;;4992088;28;20541;-77
2023/04/04 03:55:40;;;;;;;7.20;3.83;;;2.60;99.90;;;;;;5007392;28;20184;-78
2023/04/04 03:58:06;;;;;;;7.17;4.80;;;2.60;99.90;;;;;;4991987;28;20411;-78
2023/04/04 04:00:32;;;;;;;7.03;4.37;;;2.70;99.90;;;;;;4992429;28;20533;-78
2023/04/04 04:02:57;;;;;;;5.30;4.60;;;2.70;99.90;;;;;;5006973;28;20180;-76
2023/04/04 04:05:23;;;;;;;6.80;5.77;;;2.60;99.90;;;;;;4992396;28;20230;-77
2023/04/04 04:07:49;;;;;;;4.90;4.40;;;2.50;99.90;;;;;;5006304;28;20187;-78
2023/04/04 04:10:15;;;;;;;5.93;4.40;;;2.70;99.90;;;;;;5006499;28;20207;-78
2023/04/04 04:12:41;;;;;;;6.63;4.80;;;2.50;99.90;;;;;;5006078;28;20187;-77
2023/04/04 04:15:07;;;;;;;5.00;4.20;;;2.50;99.90;;;;;;5006406;28;20767;-78
2023/04/04 04:17:33;;;;;;;9.03;5.10;;;2.50;99.90;;;;;;4990845;28;20180;-77
2023/04/04 04:19:58;;;;;;;8.10;4.93;;;2.50;99.90;;;;;;5010914;28;20472;-77
2023/04/04 04:22:24;;;;;;;5.50;5.00;;;2.40;99.90;;;;;;5011107;28;20183;-77
2023/04/04 04:24:50;;;;;;;7.53;5.43;;;2.50;99.90;;;;;;5026735;28;20202;-77
2023/04/04 04:27:16;;;;;;;8.30;5.73;;;2.40;99.90;;;;;;4993972;28;20187;-78
2023/04/04 04:29:41;;;;;;;9.00;5.00;;;2.60;99.90;;;;;;5010057;28;20505;-78
2023/04/04 04:32:07;;;;;;;7.47;5.40;;;2.60;99.90;;;;;;5009626;28;20184;-78
2023/04/04 04:34:33;;;;;;;5.60;5.00;;;2.60;99.90;;;;;;5008869;28;20183;-76
2023/04/04 04:36:58;;;;;;;6.43;5.33;;;2.50;99.90;;;;;;5009280;28;20179;-77
2023/04/04 04:39:24;;;;;;;7.57;5.23;;;2.30;99.90;;;;;;5010014;28;20219;-78
2023/04/04 04:41:49;;;;;;;7.93;5.30;;;2.60;99.90;;;;;;5009826;28;20183;-77
2023/04/04 04:44:15;;;;;;;7.20;5.23;;;2.40;99.90;;;;;;5002178;28;20211;-77
2023/04/04 04:46:41;;;;;;;7.37;5.27;;;2.50;99.90;;;;;;4990386;28;20676;-77
2023/04/04 04:49:06;;;;;;;6.43;5.77;;;2.20;99.90;;;;;;4990120;28;20235;-78
2023/04/04 04:51:32;;;;;;;5.90;4.93;;;2.40;99.90;;;;;;5008169;28;20180;-77
2023/04/04 04:53:58;;;;;;;8.43;5.53;;;2.20;99.90;;;;;;4993703;28;20207;-77
2023/04/04 04:56:23;;;;;;;7.80;5.10;;;2.30;99.90;;;;;;4993689;28;20176;-76
2023/04/04 04:58:49;;;;;;;6.43;5.27;;;2.20;99.90;;;;;;4993464;28;20212;-77
2023/04/04 05:01:15;;;;;;;5.50;4.60;;;2.30;99.90;;;;;;5002534;28;20195;-78
2023/04/04 05:03:41;;;;;;;7.10;5.27;;;2.30;99.90;;;;;;5014140;28;20441;-77
2023/04/04 05:06:06;;;;;;;8.80;6.20;;;2.30;99.90;;;;;;5015384;28;20214;-77
2023/04/04 05:08:32;;;;;;;8.17;5.73;;;2.30;99.90;;;;;;5023093;28;20297;-77
2023/04/04 05:10:58;;;;;;;12.27;6.37;;;2.10;99.90;;;;;;5019432;28;20210;-75
2023/04/04 05:13:23;;;;;;;7.60;5.67;;;2.10;99.90;;;;;;5002083;28;20194;-78
2023/04/04 05:15:49;;;;;;;8.13;5.20;;;2.30;99.90;;;;;;5013618;28;20190;-77
2023/04/04 05:18:15;;;;;;;11.50;5.43;;;2.40;99.90;;;;;;5011050;28;20422;-78
2023/04/04 05:20:41;;;;;;;7.17;4.83;;;2.10;99.90;;;;;;5011977;28;20445;-78
2023/04/04 05:23:07;;;;;;;8.30;5.67;;;2.30;99.90;;;;;;5013934;28;20572;-78
2023/04/04 05:25:33;;;;;;;6.70;5.07;;;2.20;99.90;;;;;;5014195;28;20481;-78
2023/04/04 05:27:58;;;;;;;6.17;5.10;;;2.10;99.90;;;;;;5013773;28;20264;-78
2023/04/04 05:30:24;;;;;;;7.27;5.77;;;2.20;99.90;;;;;;5028688;28;20215;-78
2023/04/04 05:32:51;;;;;;;7.63;4.93;;;2.30;99.90;;;;;;5015436;28;20194;-78
2023/04/04 05:35:17;;;;;;;6.83;5.23;;;2.10;99.90;;;;;;5023124;28;20458;-77
2023/04/04 05:37:43;;;;;;;7.13;5.90;;;2.20;99.90;;;;;;5022719;28;21110;-78
2023/04/04 05:40:09;;;;;;;7.90;5.40;;;2.30;99.90;;;;;;5028310;28;20473;-76
2023/04/04 05:42:35;;;;;;;7.53;5.50;;;2.10;99.90;;;;;;5016026;28;20433;-77
2023/04/04 05:45:01;;;;;;;6.37;5.10;;;2.20;99.90;;;;;;5013332;28;20429;-78
2023/04/04 05:47:26;;;;;;;9.07;6.27;;;2.10;99.90;;;;;;5013274;28;20916;-78
2023/04/04 05:49:52;;;;;;;10.73;6.07;;;2.40;99.90;;;;;;5011859;28;20214;-77
2023/04/04 05:52:18;;;;;;;7.30;5.87;;;2.40;99.90;;;;;;5013441;28;20214;-78
2023/04/04 05:54:43;;;;;;;10.13;6.17;;;2.30;99.90;;;;;;5012981;28;20175;-76
2023/04/04 05:57:09;;;;;;;10.60;6.23;;;2.10;99.90;;;;;;5013199;28;20710;-78
2023/04/04 05:59:35;;;;;;;8.10;5.27;;;2.20;99.90;;;;;;5013221;28;20211;-78
2023/04/04 06:02:01;;;;;;;11.00;5.77;;;2.20;99.90;;;;;;5011894;28;20183;-78
2023/04/04 06:04:27;;;;;;;8.70;6.37;;;2.50;99.90;;;;;;5012637;28;20465;-78
2023/04/04 06:06:52;;;;;;;7.53;6.17;;;2.50;99.90;;;;;;5029280;28;20433;-78
2023/04/04 06:09:18;;;;;;;10.13;7.03;;;2.80;99.90;;;;;;5012456;28;20268;-76
2023/04/04 06:11:44;;;;;;;8.33;6.00;;;2.90;99.90;;;;;;5010331;28;20232;-77
2023/04/04 06:14:09;;;;;;;7.70;6.60;;;3.10;99.90;;;;;;5016910;28;20184;-78
2023/04/04 06:16:35;;;;;;;10.57;6.00;;;3.10;99.90;;;;;;5024736;28;20173;-78
2023/04/04 06:19:01;;;;;;;8.20;6.30;;;3.10;99.90;;;;;;5017082;28;20206;-78
2023/04/04 06:21:27;;;;;;;15.53;6.90;;;3.30;99.90;;;;;;5010083;28;20923;-78
2023/04/04 06:23:53;;;;;;;8.70;6.30;;;3.20;99.90;;;;;;5010639;28;20183;-77
2023/04/04 06:26:19;;;;;;;9.40;7.03;;;3.30;99.90;;;;;;5011208;28;20187;-78
2023/04/04 06:28:48;;;;;;;9.47;6.90;;;3.40;99.90;;;;;;5014541;28;20210;-78
2023/04/04 06:31:15;;;;;;;9.43;7.20;;;3.40;99.90;;;;;;5020618;28;20436;-78
2023/04/04 06:33:40;;;;;;;11.37;7.50;;;3.50;99.90;;;;;;5012378;28;20748;-76
2023/04/04 06:36:06;;;;;;;9.53;7.03;;;3.50;99.90;;;;;;5011660;28;20504;-78
2023/04/04 06:38:32;;;;;;;8.90;7.03;;;3.50;99.90;;;;;;5029865;28;20182;-78
2023/04/04 06:40:58;;;;;;;9.27;7.60;;;3.80;99.90;;;;;;5030477;28;20174;-78
2023/04/04 06:43:24;;;;;;;9.57;7.20;;;4.10;99.90;;;;;;5030113;28;20409;-76
2023/04/04 06:45:50;;;;;;;9.20;7.33;;;4.10;99.90;;;;;;5009758;28;20274;-77
2023/04/04 06:48:16;;;;;;;11.20;7.37;;;4.30;99.90;;;;;;5008866;28;20413;-77
2023/04/04 06:50:41;;;;;;;9.47;7.33;;;4.40;99.90;;;;;;5010301;28;20754;-77
2023/04/04 06:53:07;;;;;;;11.00;6.70;;;4.30;99.90;;;;;;5009102;28;20179;-77
2023/04/04 06:55:33;;;;;;;10.50;6.50;;;4.40;99.90;;;;;;5010458;28;20183;-77
2023/04/04 06:57:59;;;;;;;11.07;7.30;;;4.60;99.90;;;;;;5010073;28;20600;-77
2023/04/04 07:00:25;;;;;;;9.27;6.93;;;5.00;99.90;;;;;;5009591;28;20529;-77
2023/04/04 07:03:01;;;;;;;11.40;6.83;;;5.00;99.90;;;;;;5008593;28;20195;-77
2023/04/04 07:05:27;;;;;;;9.60;6.80;;;5.20;99.90;;;;;;5008140;28;20425;-78
2023/04/04 07:07:54;;;;;;;9.67;6.90;;;5.10;99.90;;;;;;5010020;28;20414;-77
2023/04/04 07:10:21;;;;;;;10.80;6.97;;;4.90;99.90;;;;;;5009833;28;20569;-77
2023/04/04 07:12:47;;;;;;;9.03;6.80;;;5.30;99.90;;;;;;5009774;28;20779;-77
2023/04/04 07:15:12;;;;;;;7.80;6.20;;;5.20;99.90;;;;;;5009817;28;20418;-77
2023/04/04 07:17:39;;;;;;;10.37;6.93;;;5.30;99.90;;;;;;5009870;28;20187;-77
2023/04/04 07:20:07;;;;;;;7.03;6.00;;;5.20;99.90;;;;;;5009549;28;20248;-77
2023/04/04 07:22:39;;;;;;;7.60;6.30;;;5.30;99.90;;;;;;5008956;28;20410;-77
2023/04/04 07:25:06;;;;;;;7.10;6.10;;;5.30;99.90;;;;;;5009618;28;20852;-77
2023/04/04 07:27:31;;;;;;;6.93;5.30;;;5.50;99.90;;;;;;5009534;28;20418;-77
2023/04/04 07:29:57;;;;;;;8.77;5.87;;;5.70;99.90;;;;;;5008092;28;20527;-77
2023/04/04 07:32:23;;;;;;;7.77;5.50;;;5.80;99.90;;;;;;5009835;28;20175;-77
2023/04/04 07:34:49;;;;;;;7.50;5.37;;;5.70;99.90;;;;;;5007500;28;20232;-77
2023/04/04 07:37:15;;;;;;;6.33;5.73;;;5.60;99.90;;;;;;5009494;28;20418;-77
2023/04/04 07:39:41;;;;;;;8.40;5.23;;;5.80;99.90;;;;;;5009289;28;20215;-77
2023/04/04 07:42:07;;;;;;;6.07;5.27;;;5.80;99.90;;;;;;5009455;28;20663;-77
2023/04/04 07:44:33;;;;;;;6.23;5.10;;;5.80;99.90;;;;;;5008095;28;20210;-77
2023/04/04 07:46:58;;;;;;;5.60;4.90;;;6.00;99.90;;;;;;5009316;28;20511;-78
2023/04/04 07:49:24;;;;;;;7.10;5.23;;;5.80;99.90;;;;;;5009230;28;21120;-78
2023/04/04 07:51:49;;;;;;;6.00;5.40;;;6.10;99.90;;;;;;5010403;28;20576;-77
2023/04/04 07:54:15;;;;;;;5.67;4.90;;;6.00;99.90;;;;;;4989729;28;20182;-77
2023/04/04 07:56:41;;;;;;;6.40;4.40;;;5.90;99.90;;;;;;5003612;28;20234;-77
2023/04/04 07:59:07;;;;;;;6.63;4.60;;;6.10;99.90;;;;;;4988152;28;20199;-77
2023/04/04 08:01:32;;;;;;;6.10;4.33;;;6.20;99.90;;;;;;4988189;28;20209;-77
2023/04/04 08:03:58;;;;;;;4.50;3.40;;;6.20;99.90;;;;;;4986885;28;20191;-78
2023/04/04 08:06:24;;;;;;;4.50;3.33;;;6.50;99.80;;;;;;4988326;28;20234;-77
2023/04/04 08:08:51;;;;;;;5.63;3.57;;;6.40;98.60;;;;;;4988117;28;20242;-76
2023/04/04 08:11:17;;;;;;;5.37;3.07;;;6.30;98.60;;;;;;4989156;28;20896;-77
2023/04/04 08:13:43;;;;;;;8.63;4.13;;;6.50;98.70;;;;;;4989441;28;20478;-77
2023/04/04 08:16:09;;;;;;;4.20;3.40;;;6.40;98.20;;;;;;4989761;28;20427;-77
2023/04/04 08:18:34;;;;;;;3.17;2.23;;;6.70;97.80;;;;;;4997455;28;20422;-77
2023/04/04 08:21:00;;;;;;;3.67;2.13;;;6.50;96.50;;;;;;5009227;28;20179;-77
2023/04/04 08:23:26;;;;;;;2.47;2.23;;;6.60;95.50;;;;;;5009134;28;20723;-78
2023/04/04 08:25:52;;;;;;;4.00;3.00;;;6.60;95.70;;;;;;5009997;28;20191;-77
2023/04/04 08:28:18;;;;;;;5.03;2.80;;;6.50;95.20;;;;;;5012799;28;21146;-77
2023/04/04 08:30:43;;;;;;;5.70;3.20;;;6.80;95.30;;;;;;5012797;28;20438;-78
2023/04/04 08:33:09;;;;;;;5.70;4.00;;;6.70;96.20;;;;;;5012833;28;20186;-78
2023/04/04 08:35:35;;;;;;;6.80;3.20;;;6.50;96.00;;;;;;5012975;28;20175;-78
2023/04/04 08:38:05;;;;;;;5.13;2.73;;;6.50;96.20;;;;;;5012874;28;20188;-77
2023/04/04 08:40:31;;;;;;;6.13;2.60;;;6.60;96.40;;;;;;5011356;28;20510;-78
2023/04/04 08:42:58;;;;;;;2.77;2.40;;;6.80;95.60;;;;;;5012873;28;20497;-77
2023/04/04 08:45:26;;;;;;;2.87;2.23;;;6.60;95.80;;;;;;5011464;28;20792;-77
2023/04/04 08:47:54;;;;;;;3.40;3.10;;;6.90;96.20;;;;;;5012496;28;20425;-77
2023/04/04 08:50:20;;;;;;;4.80;2.40;;;6.90;95.90;;;;;;5011127;28;20476;-78
2023/04/04 08:52:46;;;;;;;3.33;2.20;;;6.90;95.60;;;;;;5011573;28;20911;-78
2023/04/04 08:55:12;;;;;;;3.50;2.20;;;6.70;94.80;;;;;;5012501;28;20548;-78
2023/04/04 08:57:38;;;;;;;4.57;2.33;;;7.00;95.50;;;;;;5012482;28;20497;-78
2023/04/04 09:00:07;;;;;;;2.50;2.10;;;6.90;94.60;;;;;;5012392;28;21070;-77
2023/04/04 09:02:56;;;;;;;4.00;2.80;;;6.90;94.30;;;;;;4995046;28;20198;-78
2023/04/04 09:05:22;;;;;;;2.50;2.17;;;6.80;94.20;;;;;;5009520;28;20457;-77
2023/04/04 09:07:49;;;;;;;4.63;2.50;;;6.80;94.10;;;;;;5011161;28;20425;-78
2023/04/04 09:10:15;;;;;;;4.00;3.03;;;6.80;94.50;;;;;;5012233;28;20462;-77
2023/04/04 09:12:46;;;;;;;4.10;2.20;;;6.90;95.40;;;;;;5012474;28;21083;-77
2023/04/04 09:15:12;;;;;;;4.67;2.77;;;7.30;93.80;;;;;;5012368;28;20175;-77
2023/04/04 09:17:38;;;;;;;3.17;2.50;;;7.10;93.00;;;;;;5011960;28;20508;-77
2023/04/04 09:20:33;;;;;;;3.40;2.97;;;7.30;93.20;;;;;;5012250;28;20538;-78
2023/04/04 09:23:00;;;;;;;3.40;3.00;;;7.20;93.80;;;;;;5014821;28;20469;-78
2023/04/04 09:25:25;;;;;;;5.70;3.40;;;7.30;94.20;;;;;;5029443;28;20438;-77
2023/04/04 09:27:52;;;;;;;5.00;3.53;;;7.50;93.70;;;;;;5012147;28;20790;-78
2023/04/04 09:30:18;;;;;;;4.77;3.33;;;7.50;93.50;;;;;;5011749;28;20211;-78
2023/04/04 09:32:43;;;;;;;4.73;3.50;;;7.40;93.80;;;;;;5010773;28;20405;-77
2023/04/04 09:35:12;;;;;;;4.10;3.17;;;7.80;94.60;;;;;;5010557;28;20285;-78
2023/04/04 09:37:40;;;;;;;4.70;3.00;;;7.70;94.60;;;;;;5011748;28;20353;-78
2023/04/04 09:40:09;;;;;;;5.20;2.83;;;7.90;92.90;;;;;;5011627;28;20461;-78
2023/04/04 09:42:35;;;;;;;4.87;2.33;;;8.10;93.60;;;;;;5010540;28;20496;-78
2023/04/04 09:45:01;;;;;;;3.40;2.20;;;7.90;93.20;;;;;;5011637;28;20561;-78
2023/04/04 09:47:29;;;;;;;3.10;2.20;;;8.00;92.00;;;;;;5010247;28;20187;-78
2023/04/04 09:49:59;;;;;;;3.73;2.27;;;8.30;90.90;;;;;;4994049;28;20497;-78
2023/04/04 09:52:25;;;;;;;4.77;2.70;;;8.20;91.00;;;;;;5011791;28;20411;-78
2023/04/04 09:54:59;;;;;;;2.57;2.10;;;8.30;91.50;;;;;;5011571;28;20414;-78
2023/04/04 09:57:33;;;;;;;4.27;2.20;;;8.60;92.70;;;;;;5010265;28;20402;-78
2023/04/04 10:00:00;;;;;;;4.30;2.60;;;8.60;92.20;;;;;;5011536;28;20453;-78
2023/04/04 10:02:29;;;;;;;3.33;2.57;;;8.50;89.60;;;;;;5011560;28;20418;-78
2023/04/04 10:04:56;;;;;;;3.07;2.30;;;8.70;90.90;;;;;;5008828;28;21015;-78
2023/04/04 10:07:25;;;;;;;2.40;2.03;;;8.70;90.10;;;;;;5011312;28;20762;-78
2023/04/04 10:09:52;;;;;;;4.13;2.57;;;8.70;90.00;;;;;;5011273;28;20462;-78
2023/04/04 10:12:25;;;;;;;3.87;3.03;;;8.70;91.20;;;;;;5011408;28;20414;-78
2023/04/04 10:15:00;;;;;;;2.73;2.53;;;9.00;91.20;;;;;;5011343;28;20925;-78
2023/04/04 10:17:35;;;;;;;2.63;2.30;;;9.30;91.30;;;;;;5010005;28;20492;-78
2023/04/04 10:20:05;;;;;;;4.23;2.40;;;9.20;90.80;;;;;;5010520;28;20579;-78
2023/04/04 10:22:32;;;;;;;3.93;2.33;;;9.30;90.40;;;;;;5010396;28;20925;-77
2023/04/04 10:24:58;;;;;;;3.90;2.10;;;9.40;90.20;;;;;;5010364;28;20803;-78
2023/04/04 10:27:25;;;;;;;3.10;1.97;;;9.40;90.00;;;;;;5008859;28;20422;-78
2023/04/04 10:29:51;;;;;;;3.63;2.50;;;9.70;90.20;;;;;;5009960;28;21300;-78
2023/04/04 10:32:42;;;;;;;4.50;2.30;;;9.60;89.40;;;;;;5010160;28;20502;-78
2023/04/04 10:35:09;;;;;;;5.27;1.90;;;9.70;88.20;;;;;;5009774;28;20418;-78
2023/04/04 10:37:58;;;;;;;2.13;1.80;;;9.70;82.50;;;;;;5010038;28;20421;-78
2023/04/04 10:40:27;;;;;;;3.80;2.40;;;9.70;81.10;;;;;;4992402;28;20465;-78
2023/04/04 10:42:54;;;;;;;2.43;2.00;;;9.70;82.40;;;;;;5010140;28;20423;-78
2023/04/04 10:45:20;;;;;;;2.67;2.43;;;9.70;82.00;;;;;;5008622;28;20430;-78
2023/04/04 10:47:47;;;;;;;3.30;2.43;;;9.60;83.00;;;;;;5024445;28;20418;-78
2023/04/04 10:50:14;;;;;;;4.40;2.73;;;9.70;83.20;;;;;;5009787;28;20461;-78
2023/04/04 10:52:43;;;;;;;4.90;2.67;;;9.80;84.20;;;;;;5008657;28;21277;-78
2023/04/04 10:55:11;;;;;;;3.33;2.63;;;9.90;85.10;;;;;;5008778;28;20491;-78
2023/04/04 10:57:42;;;;;;;4.43;2.97;;;9.90;85.10;;;;;;5010279;28;20938;-78
2023/04/04 11:00:19;;;;;;;4.03;2.20;;;10.00;81.40;;;;;;5010013;28;20438;-78
2023/04/04 11:03:00;;;;;;;3.17;2.60;;;9.90;77.60;;;;;;5009736;28;20483;-78
2023/04/04 11:05:40;;;;;;;4.43;2.30;;;9.80;80.70;;;;;;5008426;28;20516;-78
2023/04/04 11:08:08;;;;;;;2.57;2.37;;;9.90;82.20;;;;;;5008226;28;20895;-79
2023/04/04 11:10:37;;;;;;;3.80;2.33;;;9.90;79.40;;;;;;5009424;28;20465;-79
2023/04/04 11:13:24;;;;;;;5.57;2.83;;;10.00;78.30;;;;;;5009467;28;20839;-78
2023/04/04 11:16:14;;;;;;;2.27;2.00;;;9.60;78.20;;;;;;5009667;28;20569;-78
2023/04/04 11:18:44;;;;;;;2.80;2.60;;;10.10;78.50;;;;;;5000531;28;20434;-78
2023/04/04 11:21:13;;;;;;;2.40;2.20;;;10.10;79.60;;;;;;5004762;28;20473;-79
2023/04/04 11:23:47;;;;;;;3.40;2.40;;;10.10;77.00;;;;;;4989547;28;20457;-78
2023/04/04 11:26:34;;;;;;;2.47;1.80;;;10.20;74.60;;;;;;4990124;28;20953;-78
2023/04/04 11:29:06;;;;;;;2.40;2.20;;;10.20;76.00;;;;;;4987942;28;20998;-78
2023/04/04 11:31:33;;;;;;;3.77;2.60;;;10.20;74.90;;;;;;4989405;28;20419;-78
2023/04/04 11:34:10;;;;;;;5.13;3.00;;;10.20;75.00;;;;;;5004832;28;20415;-78
2023/04/04 11:36:35;;;;;;;3.00;2.67;;;10.30;78.50;;;;;;4989692;28;20426;-78
2023/04/04 11:39:18;;;;;;;6.00;2.50;;;10.30;78.20;;;;;;4988089;28;20459;-78
2023/04/04 11:41:56;;;;;;;3.17;2.47;;;10.30;78.80;;;;;;4988243;28;20183;-78
2023/04/04 11:44:23;;;;;;;3.10;1.93;;;10.30;77.30;;;;;;5011658;28;20827;-78
2023/04/04 11:46:55;;;;;;;3.30;2.40;;;10.30;77.00;;;;;;5009194;28;20458;-78
2023/04/04 11:49:29;;;;;;;4.57;2.50;;;10.30;76.10;;;;;;5008953;28;20811;-78
2023/04/04 11:51:56;;;;;;;3.30;2.80;;;10.30;74.10;;;;;;5009492;28;20498;-78
2023/04/04 11:54:22;;;;;;;3.63;2.63;;;10.30;74.60;;;;;;5009358;28;20501;-78
2023/04/04 11:56:47;;;;;;;2.50;2.20;;;10.20;71.30;;;;;;5007973;28;20455;-79
2023/04/04 11:59:18;;;;;;;2.77;2.53;;;10.40;75.10;;;;;;5014365;28;20452;-78
2023/04/04 12:01:44;;;;;;;2.63;2.20;;;10.50;78.10;;;;;;5021073;28;20197;-78
2023/04/04 12:04:10;;;;;;;3.03;2.73;;;10.50;76.60;;;;;;5017832;28;20424;-78
2023/04/04 12:06:39;;;;;;;3.43;2.30;;;10.50;74.80;;;;;;5031919;28;20913;-78
2023/04/04 12:09:05;;;;;;;6.07;2.90;;;10.60;74.80;;;;;;5024837;28;21169;-78
2023/04/04 12:11:35;;;;;;;5.90;2.73;;;10.60;74.90;;;;;;5020915;28;20425;-78
2023/04/04 12:14:01;;;;;;;6.20;2.50;;;10.60;70.20;;;;;;5011725;28;20417;-78
2023/04/04 12:16:27;;;;;;;4.17;2.50;;;10.60;69.60;;;;;;5013049;28;20421;-78
2023/04/04 12:18:55;;;;;;;4.23;2.80;;;10.60;71.60;;;;;;5013815;28;20446;-78
2023/04/04 12:21:20;;;;;;;4.17;3.20;;;10.60;73.40;;;;;;5014076;28;20436;-79
2023/04/04 12:23:49;;;;;;;4.37;2.60;;;10.60;73.30;;;;;;5014296;28;20914;-78
2023/04/04 12:26:16;;;;;;;4.43;2.50;;;10.60;75.60;;;;;;5016638;28;20207;-78
2023/04/04 12:28:44;;;;;;;3.37;2.53;;;10.60;71.90;;;;;;5015683;28;20488;-78
2023/04/04 12:31:11;;;;;;;5.37;2.67;;;10.60;69.90;;;;;;5015530;28;20407;-78
2023/04/04 12:33:40;;;;;;;3.10;2.60;;;10.50;67.60;;;;;;5015645;28;20422;-79
2023/04/04 12:36:06;;;;;;;4.60;2.90;;;10.30;68.80;;;;;;5015584;28;20438;-79
2023/04/04 12:38:32;;;;;;;3.70;2.40;;;10.40;71.30;;;;;;5015001;28;20430;-78
2023/04/04 12:40:58;;;;;;;3.77;3.20;;;10.40;74.10;;;;;;5015899;28;20501;-79
2023/04/04 12:43:32;;;;;;;3.37;2.97;;;10.60;74.40;;;;;;5014074;28;20933;-79
2023/04/04 12:45:58;;;;;;;5.03;3.80;;;10.70;75.60;;;;;;4996423;28;20505;-78
2023/04/04 12:48:28;;;;;;;5.53;2.70;;;10.70;72.00;;;;;;5010765;28;20443;-78
2023/04/04 12:50:59;;;;;;;4.70;2.77;;;10.80;75.00;;;;;;5011215;28;20211;-79
2023/04/04 12:53:28;;;;;;;5.57;3.03;;;10.90;73.00;;;;;;4994923;28;20423;-78
2023/04/04 12:56:00;;;;;;;3.13;2.83;;;10.90;71.20;;;;;;4996649;28;20411;-79